ETNL/RLG METAR and TAF weather

Enter ICAO airport designator
Station Type Date Time Source
ETNL METAR 2018/12/12 16:20 UTC NOAA

ETNL 121620Z 03007KT 9999 FEW012 SCT015 BKN029 04/02 Q1027 BLU


Station Type Date Time Source
ETNL Decoded METAR 2018/12/12 16:20 UTC NOAA

Laage, Germany (ETNL) 53-55N 012-17E 46M
Dec 12, 2018 - 11:20 AM EST / 2018.12.12 1620 UTC
Wind: from the NNE (030 degrees) at 8 MPH (7 KT):0
Visibility: greater than 7 mile(s):0
Sky conditions: mostly cloudy
Temperature: 39 F (4 C)
Dew Point: 35 F (2 C)
Relative Humidity: 86%
Pressure (altimeter): 30.33 in. Hg (1027 hPa)
ob: ETNL 121620Z 03007KT 9999 FEW012 SCT015 BKN029 04/02 Q1027 BLU
cycle: 16

Station Type Date Time Source
ETNL TAF 2018/11/11 12:36 UTC NOAA

TAF ETNL 111111Z 1112/1206 20008KT 9999 NSW SCT060 BKN120
TEMPO 1112/1115 18014KT 6000 -RA BKN040 BKN080
TEMPO 1115/1206 18010KT 4000 SHRA BKN010 BKN020TCU BY ETGL


Example: see airport list